sensor_id;sensor_type;location;lat;lon;timestamp;temperature;humidity
5059;DHT22;2548;52.050;11.036;2023-02-24T00:00:15;5.20;99.90
5059;DHT22;2548;52.050;11.036;2023-02-24T00:03:01;5.20;99.90
5059;DHT22;2548;52.050;11.036;2023-02-24T00:05:35;5.10;99.90
5059;DHT22;2548;52.050;11.036;2023-02-24T00:08:04;5.10;99.90
5059;DHT22;2548;52.050;11.036;2023-02-24T00:10:32;5.00;99.90
5059;DHT22;2548;52.050;11.036;2023-02-24T00:13:02;5.10;99.90
5059;DHT22;2548;52.050;11.036;2023-02-24T00:15:30;5.10;99.90
5059;DHT22;2548;52.050;11.036;2023-02-24T00:17:57;5.10;99.90
5059;DHT22;2548;52.050;11.036;2023-02-24T00:20:26;5.00;99.90
5059;DHT22;2548;52.050;11.036;2023-02-24T00:22:53;4.90;99.90
5059;DHT22;2548;52.050;11.036;2023-02-24T00:25:21;4.90;99.90
5059;DHT22;2548;52.050;11.036;2023-02-24T00:27:48;4.90;99.90
5059;DHT22;2548;52.050;11.036;2023-02-24T00:30:16;4.90;99.90
5059;DHT22;2548;52.050;11.036;2023-02-24T00:32:46;4.80;99.90
5059;DHT22;2548;52.050;11.036;2023-02-24T00:35:14;4.90;99.90
5059;DHT22;2548;52.050;11.036;2023-02-24T00:37:42;4.90;99.90
5059;DHT22;2548;52.050;11.036;2023-02-24T00:40:11;4.80;99.90
5059;DHT22;2548;52.050;11.036;2023-02-24T00:42:38;4.80;99.90
5059;DHT22;2548;52.050;11.036;2023-02-24T00:45:08;4.80;99.90
5059;DHT22;2548;52.050;11.036;2023-02-24T00:47:36;4.70;99.90
5059;DHT22;2548;52.050;11.036;2023-02-24T00:50:05;4.70;99.90
5059;DHT22;2548;52.050;11.036;2023-02-24T00:52:33;4.70;99.90
5059;DHT22;2548;52.050;11.036;2023-02-24T00:55:03;4.70;99.90
5059;DHT22;2548;52.050;11.036;2023-02-24T00:57:40;4.60;99.90
5059;DHT22;2548;52.050;11.036;2023-02-24T01:00:09;4.50;99.90
5059;DHT22;2548;52.050;11.036;2023-02-24T01:02:42;4.50;99.90
5059;DHT22;2548;52.050;11.036;2023-02-24T01:05:12;4.50;99.90
5059;DHT22;2548;52.050;11.036;2023-02-24T01:07:40;4.50;99.90
5059;DHT22;2548;52.050;11.036;2023-02-24T01:10:10;4.50;99.90
5059;DHT22;2548;52.050;11.036;2023-02-24T01:12:38;4.50;99.90
5059;DHT22;2548;52.050;11.036;2023-02-24T01:15:16;4.50;99.90
5059;DHT22;2548;52.050;11.036;2023-02-24T01:17:44;4.60;99.90
5059;DHT22;2548;52.050;11.036;2023-02-24T01:20:13;4.60;99.90
5059;DHT22;2548;52.050;11.036;2023-02-24T01:22:45;4.60;99.90
5059;DHT22;2548;52.050;11.036;2023-02-24T01:25:17;4.60;99.90
5059;DHT22;2548;52.050;11.036;2023-02-24T01:27:45;4.50;99.90
5059;DHT22;2548;52.050;11.036;2023-02-24T01:30:13;4.60;99.90
5059;DHT22;2548;52.050;11.036;2023-02-24T01:32:43;4.60;99.90
5059;DHT22;2548;52.050;11.036;2023-02-24T01:35:11;4.50;99.90
5059;DHT22;2548;52.050;11.036;2023-02-24T01:37:39;4.50;99.90
5059;DHT22;2548;52.050;11.036;2023-02-24T01:40:11;4.50;99.90
5059;DHT22;2548;52.050;11.036;2023-02-24T01:42:45;4.50;99.90
5059;DHT22;2548;52.050;11.036;2023-02-24T01:45:19;4.50;99.90
5059;DHT22;2548;52.050;11.036;2023-02-24T01:47:47;4.40;99.90
5059;DHT22;2548;52.050;11.036;2023-02-24T01:50:17;4.40;99.90
5059;DHT22;2548;52.050;11.036;2023-02-24T01:52:48;4.40;99.90
5059;DHT22;2548;52.050;11.036;2023-02-24T01:55:20;4.40;99.90
5059;DHT22;2548;52.050;11.036;2023-02-24T01:57:51;4.30;99.90
5059;DHT22;2548;52.050;11.036;2023-02-24T02:00:20;4.30;99.90
5059;DHT22;2548;52.050;11.036;2023-02-24T02:03:08;4.30;99.90
5059;DHT22;2548;52.050;11.036;2023-02-24T02:05:38;4.30;99.90
5059;DHT22;2548;52.050;11.036;2023-02-24T02:08:07;4.20;99.90
5059;DHT22;2548;52.050;11.036;2023-02-24T02:10:39;4.20;99.90
5059;DHT22;2548;52.050;11.036;2023-02-24T02:13:12;4.20;99.90
5059;DHT22;2548;52.050;11.036;2023-02-24T02:15:46;4.10;99.90
5059;DHT22;2548;52.050;11.036;2023-02-24T02:18:21;4.10;99.90
5059;DHT22;2548;52.050;11.036;2023-02-24T02:21:06;4.10;99.90
5059;DHT22;2548;52.050;11.036;2023-02-24T02:23:53;4.00;99.90
5059;DHT22;2548;52.050;11.036;2023-02-24T02:26:43;4.00;99.90
5059;DHT22;2548;52.050;11.036;2023-02-24T02:29:51;4.00;99.90
5059;DHT22;2548;52.050;11.036;2023-02-24T02:32:42;4.00;99.90
5059;DHT22;2548;52.050;11.036;2023-02-24T02:35:20;3.90;99.90
5059;DHT22;2548;52.050;11.036;2023-02-24T02:37:53;3.90;99.90
5059;DHT22;2548;52.050;11.036;2023-02-24T02:40:25;3.80;99.90
5059;DHT22;2548;52.050;11.036;2023-02-24T02:42:58;3.90;99.90
5059;DHT22;2548;52.050;11.036;2023-02-24T02:45:32;3.90;99.90
5059;DHT22;2548;52.050;11.036;2023-02-24T02:48:06;3.90;99.90
5059;DHT22;2548;52.050;11.036;2023-02-24T02:50:39;3.90;99.90
5059;DHT22;2548;52.050;11.036;2023-02-24T02:53:15;3.90;99.90
5059;DHT22;2548;52.050;11.036;2023-02-24T02:55:46;3.90;99.90
5059;DHT22;2548;52.050;11.036;2023-02-24T02:58:18;3.90;99.90
5059;DHT22;2548;52.050;11.036;2023-02-24T03:00:51;3.90;99.90
5059;DHT22;2548;52.050;11.036;2023-02-24T03:03:29;3.90;99.90
5059;DHT22;2548;52.050;11.036;2023-02-24T03:06:02;4.00;99.90
5059;DHT22;2548;52.050;11.036;2023-02-24T03:08:34;3.90;99.90
5059;DHT22;2548;52.050;11.036;2023-02-24T03:11:05;3.90;99.90
5059;DHT22;2548;52.050;11.036;2023-02-24T03:13:37;3.90;99.90
5059;DHT22;2548;52.050;11.036;2023-02-24T03:16:08;3.90;99.90
5059;DHT22;2548;52.050;11.036;2023-02-24T03:18:39;3.90;99.90
5059;DHT22;2548;52.050;11.036;2023-02-24T03:21:15;3.90;99.90
5059;DHT22;2548;52.050;11.036;2023-02-24T03:23:48;3.90;99.90
5059;DHT22;2548;52.050;11.036;2023-02-24T03:26:21;3.90;99.90
5059;DHT22;2548;52.050;11.036;2023-02-24T03:28:59;3.80;99.90
5059;DHT22;2548;52.050;11.036;2023-02-24T03:31:36;3.80;99.90
5059;DHT22;2548;52.050;11.036;2023-02-24T03:34:10;3.80;99.90
5059;DHT22;2548;52.050;11.036;2023-02-24T03:36:41;3.90;99.90
5059;DHT22;2548;52.050;11.036;2023-02-24T03:39:10;3.90;99.90
5059;DHT22;2548;52.050;11.036;2023-02-24T03:41:51;3.90;99.90
5059;DHT22;2548;52.050;11.036;2023-02-24T03:44:23;3.90;99.90
5059;DHT22;2548;52.050;11.036;2023-02-24T03:46:50;3.90;99.90
5059;DHT22;2548;52.050;11.036;2023-02-24T03:49:21;3.80;99.90
5059;DHT22;2548;52.050;11.036;2023-02-24T03:51:58;3.80;99.90
5059;DHT22;2548;52.050;11.036;2023-02-24T03:54:47;3.80;99.90
5059;DHT22;2548;52.050;11.036;2023-02-24T03:57:27;3.80;99.90
5059;DHT22;2548;52.050;11.036;2023-02-24T04:00:07;3.70;99.90
5059;DHT22;2548;52.050;11.036;2023-02-24T04:02:51;3.70;99.90
5059;DHT22;2548;52.050;11.036;2023-02-24T04:05:25;3.70;99.90
5059;DHT22;2548;52.050;11.036;2023-02-24T04:08:02;3.70;99.90
5059;DHT22;2548;52.050;11.036;2023-02-24T04:10:34;3.70;99.90
5059;DHT22;2548;52.050;11.036;2023-02-24T04:13:10;3.70;99.90
5059;DHT22;2548;52.050;11.036;2023-02-24T04:15:49;3.70;99.90
5059;DHT22;2548;52.050;11.036;2023-02-24T04:18:24;3.80;99.90
5059;DHT22;2548;52.050;11.036;2023-02-24T04:20:54;3.80;99.90
5059;DHT22;2548;52.050;11.036;2023-02-24T04:23:30;3.80;99.90
5059;DHT22;2548;52.050;11.036;2023-02-24T04:25:59;3.80;99.90
5059;DHT22;2548;52.050;11.036;2023-02-24T04:28:28;3.80;99.90
5059;DHT22;2548;52.050;11.036;2023-02-24T04:31:02;3.80;99.90
5059;DHT22;2548;52.050;11.036;2023-02-24T04:33:33;3.80;99.90
5059;DHT22;2548;52.050;11.036;2023-02-24T04:36:01;3.80;99.90
5059;DHT22;2548;52.050;11.036;2023-02-24T04:38:32;3.80;99.90
5059;DHT22;2548;52.050;11.036;2023-02-24T04:40:59;3.80;99.90
5059;DHT22;2548;52.050;11.036;2023-02-24T04:43:28;3.80;99.90
5059;DHT22;2548;52.050;11.036;2023-02-24T04:45:55;3.80;99.90
5059;DHT22;2548;52.050;11.036;2023-02-24T04:48:23;3.80;99.90
5059;DHT22;2548;52.050;11.036;2023-02-24T04:50:50;3.80;99.90
5059;DHT22;2548;52.050;11.036;2023-02-24T04:53:20;3.80;99.90
5059;DHT22;2548;52.050;11.036;2023-02-24T04:55:53;3.80;99.90
5059;DHT22;2548;52.050;11.036;2023-02-24T04:58:24;3.80;99.90
5059;DHT22;2548;52.050;11.036;2023-02-24T05:00:53;3.80;99.90
5059;DHT22;2548;52.050;11.036;2023-02-24T05:03:23;3.80;99.90
5059;DHT22;2548;52.050;11.036;2023-02-24T05:05:55;3.80;99.90
5059;DHT22;2548;52.050;11.036;2023-02-24T05:08:24;3.80;99.90
5059;DHT22;2548;52.050;11.036;2023-02-24T05:10:54;3.80;99.90
5059;DHT22;2548;52.050;11.036;2023-02-24T05:13:25;3.70;99.90
5059;DHT22;2548;52.050;11.036;2023-02-24T05:15:53;3.70;99.90
5059;DHT22;2548;52.050;11.036;2023-02-24T05:18:21;3.80;99.90
5059;DHT22;2548;52.050;11.036;2023-02-24T05:20:50;3.80;99.90
5059;DHT22;2548;52.050;11.036;2023-02-24T05:23:36;3.80;99.90
5059;DHT22;2548;52.050;11.036;2023-02-24T05:26:07;3.80;99.90
5059;DHT22;2548;52.050;11.036;2023-02-24T05:28:35;3.80;99.90
5059;DHT22;2548;52.050;11.036;2023-02-24T05:31:05;3.80;99.90
5059;DHT22;2548;52.050;11.036;2023-02-24T05:33:34;3.70;99.90
5059;DHT22;2548;52.050;11.036;2023-02-24T05:36:03;3.70;99.90
5059;DHT22;2548;52.050;11.036;2023-02-24T05:38:31;3.70;99.90
5059;DHT22;2548;52.050;11.036;2023-02-24T05:41:05;3.70;99.90
5059;DHT22;2548;52.050;11.036;2023-02-24T05:43:33;3.70;99.90
5059;DHT22;2548;52.050;11.036;2023-02-24T05:46:04;3.70;99.90
5059;DHT22;2548;52.050;11.036;2023-02-24T05:48:32;3.70;99.90
5059;DHT22;2548;52.050;11.036;2023-02-24T05:51:00;3.70;99.90
5059;DHT22;2548;52.050;11.036;2023-02-24T05:53:29;3.70;99.90
5059;DHT22;2548;52.050;11.036;2023-02-24T05:56:00;3.70;99.90
5059;DHT22;2548;52.050;11.036;2023-02-24T05:58:31;3.70;99.90
5059;DHT22;2548;52.050;11.036;2023-02-24T06:00:58;3.70;99.90
5059;DHT22;2548;52.050;11.036;2023-02-24T06:03:31;3.70;99.90
5059;DHT22;2548;52.050;11.036;2023-02-24T06:06:01;3.70;99.90
5059;DHT22;2548;52.050;11.036;2023-02-24T06:08:34;3.70;99.90
5059;DHT22;2548;52.050;11.036;2023-02-24T06:11:08;3.70;99.90
5059;DHT22;2548;52.050;11.036;2023-02-24T06:13:37;3.70;99.90
5059;DHT22;2548;52.050;11.036;2023-02-24T06:16:06;3.70;99.90
5059;DHT22;2548;52.050;11.036;2023-02-24T06:18:33;3.60;99.90
5059;DHT22;2548;52.050;11.036;2023-02-24T06:21:01;3.60;99.90
5059;DHT22;2548;52.050;11.036;2023-02-24T06:23:29;3.60;99.90
5059;DHT22;2548;52.050;11.036;2023-02-24T06:26:00;3.50;99.90
5059;DHT22;2548;52.050;11.036;2023-02-24T06:28:29;3.60;99.90
5059;DHT22;2548;52.050;11.036;2023-02-24T06:31:01;3.50;99.90
5059;DHT22;2548;52.050;11.036;2023-02-24T06:33:29;3.60;99.90
5059;DHT22;2548;52.050;11.036;2023-02-24T06:35:58;3.60;99.90
5059;DHT22;2548;52.050;11.036;2023-02-24T06:38:26;3.60;99.90
5059;DHT22;2548;52.050;11.036;2023-02-24T06:40:56;3.60;99.90
5059;DHT22;2548;52.050;11.036;2023-02-24T06:43:23;3.60;99.90
5059;DHT22;2548;52.050;11.036;2023-02-24T06:45:51;3.50;99.90
5059;DHT22;2548;52.050;11.036;2023-02-24T06:48:20;3.50;99.90
5059;DHT22;2548;52.050;11.036;2023-02-24T06:50:48;3.60;99.90
5059;DHT22;2548;52.050;11.036;2023-02-24T06:53:16;3.50;99.90
5059;DHT22;2548;52.050;11.036;2023-02-24T06:55:45;3.60;99.90
5059;DHT22;2548;52.050;11.036;2023-02-24T06:58:16;3.60;99.90
5059;DHT22;2548;52.050;11.036;2023-02-24T07:00:45;3.60;99.90
5059;DHT22;2548;52.050;11.036;2023-02-24T07:03:24;3.60;99.90
5059;DHT22;2548;52.050;11.036;2023-02-24T07:06:04;3.50;99.90
5059;DHT22;2548;52.050;11.036;2023-02-24T07:08:45;3.50;99.90
5059;DHT22;2548;52.050;11.036;2023-02-24T07:11:13;3.50;99.90
5059;DHT22;2548;52.050;11.036;2023-02-24T07:13:43;3.60;99.90
5059;DHT22;2548;52.050;11.036;2023-02-24T07:16:12;3.50;99.90
5059;DHT22;2548;52.050;11.036;2023-02-24T07:18:43;3.50;99.90
5059;DHT22;2548;52.050;11.036;2023-02-24T07:21:15;3.50;99.90
5059;DHT22;2548;52.050;11.036;2023-02-24T07:23:49;3.50;99.90
5059;DHT22;2548;52.050;11.036;2023-02-24T07:26:23;3.50;99.90
5059;DHT22;2548;52.050;11.036;2023-02-24T07:28:52;3.50;99.90
5059;DHT22;2548;52.050;11.036;2023-02-24T07:31:22;3.50;99.90
5059;DHT22;2548;52.050;11.036;2023-02-24T07:33:54;3.50;99.90
5059;DHT22;2548;52.050;11.036;2023-02-24T07:36:23;3.40;99.90
5059;DHT22;2548;52.050;11.036;2023-02-24T07:38:56;3.50;99.90
5059;DHT22;2548;52.050;11.036;2023-02-24T07:41:25;3.50;99.90
5059;DHT22;2548;52.050;11.036;2023-02-24T07:43:53;3.50;99.90
5059;DHT22;2548;52.050;11.036;2023-02-24T07:46:25;3.50;99.90
5059;DHT22;2548;52.050;11.036;2023-02-24T07:48:55;3.50;99.90
5059;DHT22;2548;52.050;11.036;2023-02-24T07:51:26;3.50;99.90
5059;DHT22;2548;52.050;11.036;2023-02-24T07:53:56;3.40;99.90
5059;DHT22;2548;52.050;11.036;2023-02-24T07:56:25;3.40;99.90
5059;DHT22;2548;52.050;11.036;2023-02-24T07:58:57;3.40;99.90
5059;DHT22;2548;52.050;11.036;2023-02-24T08:01:26;3.40;99.90
5059;DHT22;2548;52.050;11.036;2023-02-24T08:03:56;3.40;99.90
5059;DHT22;2548;52.050;11.036;2023-02-24T08:06:30;3.50;99.90
5059;DHT22;2548;52.050;11.036;2023-02-24T08:09:04;3.40;99.90
5059;DHT22;2548;52.050;11.036;2023-02-24T08:11:43;3.50;99.90
5059;DHT22;2548;52.050;11.036;2023-02-24T08:14:12;3.50;99.90
5059;DHT22;2548;52.050;11.036;2023-02-24T08:16:41;3.50;99.90
5059;DHT22;2548;52.050;11.036;2023-02-24T08:19:11;3.60;99.90
5059;DHT22;2548;52.050;11.036;2023-02-24T08:21:39;3.60;99.90
5059;DHT22;2548;52.050;11.036;2023-02-24T08:24:13;3.60;99.90
5059;DHT22;2548;52.050;11.036;2023-02-24T08:26:44;3.60;99.90
5059;DHT22;2548;52.050;11.036;2023-02-24T08:29:13;3.70;99.90
5059;DHT22;2548;52.050;11.036;2023-02-24T08:31:45;3.70;99.90
5059;DHT22;2548;52.050;11.036;2023-02-24T08:34:16;3.70;99.90
5059;DHT22;2548;52.050;11.036;2023-02-24T08:36:44;3.70;99.90
5059;DHT22;2548;52.050;11.036;2023-02-24T08:39:13;3.80;99.90
5059;DHT22;2548;52.050;11.036;2023-02-24T08:41:41;3.80;99.90
5059;DHT22;2548;52.050;11.036;2023-02-24T08:44:16;3.80;99.90
5059;DHT22;2548;52.050;11.036;2023-02-24T08:46:45;3.80;99.90
5059;DHT22;2548;52.050;11.036;2023-02-24T08:49:16;3.90;99.90
5059;DHT22;2548;52.050;11.036;2023-02-24T08:51:45;3.90;99.90
5059;DHT22;2548;52.050;11.036;2023-02-24T08:54:15;3.90;99.90
5059;DHT22;2548;52.050;11.036;2023-02-24T08:56:44;3.90;99.90
5059;DHT22;2548;52.050;11.036;2023-02-24T08:59:16;4.00;99.90
5059;DHT22;2548;52.050;11.036;2023-02-24T09:02:05;3.90;99.90
5059;DHT22;2548;52.050;11.036;2023-02-24T09:04:52;3.90;99.90
5059;DHT22;2548;52.050;11.036;2023-02-24T09:07:22;3.90;99.90
5059;DHT22;2548;52.050;11.036;2023-02-24T09:09:50;3.90;99.90
5059;DHT22;2548;52.050;11.036;2023-02-24T09:12:22;3.90;99.90
5059;DHT22;2548;52.050;11.036;2023-02-24T09:14:52;3.90;99.90
5059;DHT22;2548;52.050;11.036;2023-02-24T09:17:25;3.90;99.90
5059;DHT22;2548;52.050;11.036;2023-02-24T09:20:19;3.90;99.90
5059;DHT22;2548;52.050;11.036;2023-02-24T09:23:21;3.90;99.90
5059;DHT22;2548;52.050;11.036;2023-02-24T09:25:55;3.90;99.90
5059;DHT22;2548;52.050;11.036;2023-02-24T09:28:23;3.90;99.90
5059;DHT22;2548;52.050;11.036;2023-02-24T09:30:53;3.90;99.90
5059;DHT22;2548;52.050;11.036;2023-02-24T09:33:23;3.90;99.90
5059;DHT22;2548;52.050;11.036;2023-02-24T09:35:55;3.90;99.90
5059;DHT22;2548;52.050;11.036;2023-02-24T09:38:35;3.90;99.90
5059;DHT22;2548;52.050;11.036;2023-02-24T09:41:26;4.00;99.90
5059;DHT22;2548;52.050;11.036;2023-02-24T09:43:59;4.00;99.90
5059;DHT22;2548;52.050;11.036;2023-02-24T09:46:35;4.00;99.90
5059;DHT22;2548;52.050;11.036;2023-02-24T09:49:10;4.00;99.90
5059;DHT22;2548;52.050;11.036;2023-02-24T09:51:43;4.00;99.90
5059;DHT22;2548;52.050;11.036;2023-02-24T09:54:19;4.00;99.90
5059;DHT22;2548;52.050;11.036;2023-02-24T09:56:53;4.00;99.90
5059;DHT22;2548;52.050;11.036;2023-02-24T09:59:43;4.00;99.90
5059;DHT22;2548;52.050;11.036;2023-02-24T10:02:36;4.00;99.90
5059;DHT22;2548;52.050;11.036;2023-02-24T10:05:17;4.00;99.90
5059;DHT22;2548;52.050;11.036;2023-02-24T10:07:49;4.00;99.90
5059;DHT22;2548;52.050;11.036;2023-02-24T10:10:19;4.00;99.90
5059;DHT22;2548;52.050;11.036;2023-02-24T10:12:57;4.10;99.90
5059;DHT22;2548;52.050;11.036;2023-02-24T10:15:31;4.10;99.90
5059;DHT22;2548;52.050;11.036;2023-02-24T10:18:29;4.10;99.90
5059;DHT22;2548;52.050;11.036;2023-02-24T10:21:05;4.10;99.90
5059;DHT22;2548;52.050;11.036;2023-02-24T10:23:51;4.10;99.90
5059;DHT22;2548;52.050;11.036;2023-02-24T10:26:28;4.10;99.90
5059;DHT22;2548;52.050;11.036;2023-02-24T10:29:05;4.00;99.90
5059;DHT22;2548;52.050;11.036;2023-02-24T10:31:42;4.00;99.90
5059;DHT22;2548;52.050;11.036;2023-02-24T10:34:15;3.90;99.90
5059;DHT22;2548;52.050;11.036;2023-02-24T10:36:50;3.90;99.90
5059;DHT22;2548;52.050;11.036;2023-02-24T10:39:21;3.80;99.90
5059;DHT22;2548;52.050;11.036;2023-02-24T10:41:53;3.70;99.90
5059;DHT22;2548;52.050;11.036;2023-02-24T10:44:23;3.70;99.90
5059;DHT22;2548;52.050;11.036;2023-02-24T10:47:09;3.60;99.90
5059;DHT22;2548;52.050;11.036;2023-02-24T10:49:42;3.50;99.90
5059;DHT22;2548;52.050;11.036;2023-02-24T10:52:23;3.50;99.90
5059;DHT22;2548;52.050;11.036;2023-02-24T10:55:23;3.40;99.90
5059;DHT22;2548;52.050;11.036;2023-02-24T10:58:05;3.30;99.90
5059;DHT22;2548;52.050;11.036;2023-02-24T11:00:43;3.30;99.90
5059;DHT22;2548;52.050;11.036;2023-02-24T11:03:39;3.20;99.90
5059;DHT22;2548;52.050;11.036;2023-02-24T11:06:18;3.20;99.90
5059;DHT22;2548;52.050;11.036;2023-02-24T11:09:19;3.20;99.90
5059;DHT22;2548;52.050;11.036;2023-02-24T11:12:06;3.20;99.90
5059;DHT22;2548;52.050;11.036;2023-02-24T11:14:57;3.20;99.90
5059;DHT22;2548;52.050;11.036;2023-02-24T11:17:48;3.20;99.90
5059;DHT22;2548;52.050;11.036;2023-02-24T11:20:35;3.20;99.90
5059;DHT22;2548;52.050;11.036;2023-02-24T11:23:06;3.30;99.90
5059;DHT22;2548;52.050;11.036;2023-02-24T11:25:37;3.20;99.90
5059;DHT22;2548;52.050;11.036;2023-02-24T11:28:16;3.30;99.90
5059;DHT22;2548;52.050;11.036;2023-02-24T11:30:52;3.30;99.90
5059;DHT22;2548;52.050;11.036;2023-02-24T11:33:28;3.20;99.90
5059;DHT22;2548;52.050;11.036;2023-02-24T11:36:04;3.20;99.90
5059;DHT22;2548;52.050;11.036;2023-02-24T11:38:39;3.30;99.90
5059;DHT22;2548;52.050;11.036;2023-02-24T11:41:15;3.30;99.90
5059;DHT22;2548;52.050;11.036;2023-02-24T11:43:52;3.20;99.90
5059;DHT22;2548;52.050;11.036;2023-02-24T11:46:25;3.20;99.90
5059;DHT22;2548;52.050;11.036;2023-02-24T11:49:00;3.20;99.90
5059;DHT22;2548;52.050;11.036;2023-02-24T11:51:31;3.20;99.90
5059;DHT22;2548;52.050;11.036;2023-02-24T11:54:02;3.20;99.90
5059;DHT22;2548;52.050;11.036;2023-02-24T11:56:33;3.20;99.90
5059;DHT22;2548;52.050;11.036;2023-02-24T11:59:08;3.20;99.90
5059;DHT22;2548;52.050;11.036;2023-02-24T12:01:41;3.30;99.90
5059;DHT22;2548;52.050;11.036;2023-02-24T12:04:16;3.30;99.90
5059;DHT22;2548;52.050;11.036;2023-02-24T12:06:51;3.30;99.90
5059;DHT22;2548;52.050;11.036;2023-02-24T12:09:27;3.40;99.90
5059;DHT22;2548;52.050;11.036;2023-02-24T12:11:59;3.40;99.90
5059;DHT22;2548;52.050;11.036;2023-02-24T12:14:34;3.50;99.90
5059;DHT22;2548;52.050;11.036;2023-02-24T12:17:16;3.50;99.90
5059;DHT22;2548;52.050;11.036;2023-02-24T12:19:53;3.50;99.90
5059;DHT22;2548;52.050;11.036;2023-02-24T12:22:29;3.60;99.90
5059;DHT22;2548;52.050;11.036;2023-02-24T12:24:59;3.50;99.90
5059;DHT22;2548;52.050;11.036;2023-02-24T12:27:42;3.60;99.90
5059;DHT22;2548;52.050;11.036;2023-02-24T12:30:30;3.60;99.90
5059;DHT22;2548;52.050;11.036;2023-02-24T12:33:13;3.60;99.90
5059;DHT22;2548;52.050;11.036;2023-02-24T12:35:45;3.60;99.90
5059;DHT22;2548;52.050;11.036;2023-02-24T12:38:31;3.60;99.90
5059;DHT22;2548;52.050;11.036;2023-02-24T12:41:15;3.60;99.90
5059;DHT22;2548;52.050;11.036;2023-02-24T12:43:49;3.60;99.90
5059;DHT22;2548;52.050;11.036;2023-02-24T12:46:24;3.50;99.90
5059;DHT22;2548;52.050;11.036;2023-02-24T12:49:12;3.50;99.90
5059;DHT22;2548;52.050;11.036;2023-02-24T12:51:52;3.50;99.90
5059;DHT22;2548;52.050;11.036;2023-02-24T12:54:23;3.50;99.90
5059;DHT22;2548;52.050;11.036;2023-02-24T12:56:58;3.50;99.90
5059;DHT22;2548;52.050;11.036;2023-02-24T12:59:33;3.50;99.90
5059;DHT22;2548;52.050;11.036;2023-02-24T13:02:06;3.50;99.90
5059;DHT22;2548;52.050;11.036;2023-02-24T13:04:42;3.50;99.90
5059;DHT22;2548;52.050;11.036;2023-02-24T13:07:29;3.50;99.90
5059;DHT22;2548;52.050;11.036;2023-02-24T13:10:11;3.50;99.90
5059;DHT22;2548;52.050;11.036;2023-02-24T13:12:48;3.40;99.90
5059;DHT22;2548;52.050;11.036;2023-02-24T13:15:20;3.40;99.90
5059;DHT22;2548;52.050;11.036;2023-02-24T13:17:51;3.30;99.90
5059;DHT22;2548;52.050;11.036;2023-02-24T13:20:28;3.40;99.90
5059;DHT22;2548;52.050;11.036;2023-02-24T13:22:56;3.30;99.90
5059;DHT22;2548;52.050;11.036;2023-02-24T13:25:30;3.40;99.90
5059;DHT22;2548;52.050;11.036;2023-02-24T13:28:00;3.30;99.90
5059;DHT22;2548;52.050;11.036;2023-02-24T13:30:38;3.40;99.90
5059;DHT22;2548;52.050;11.036;2023-02-24T13:33:23;3.30;99.90
5059;DHT22;2548;52.050;11.036;2023-02-24T13:36:09;3.40;99.90
5059;DHT22;2548;52.050;11.036;2023-02-24T13:38:39;3.30;99.90
5059;DHT22;2548;52.050;11.036;2023-02-24T13:41:20;3.30;99.90
5059;DHT22;2548;52.050;11.036;2023-02-24T13:43:53;3.30;99.90
5059;DHT22;2548;52.050;11.036;2023-02-24T13:46:21;3.40;99.90
5059;DHT22;2548;52.050;11.036;2023-02-24T13:49:17;3.40;99.90
5059;DHT22;2548;52.050;11.036;2023-02-24T13:52:01;3.40;99.90
5059;DHT22;2548;52.050;11.036;2023-02-24T13:57:46;3.40;99.90
5059;DHT22;2548;52.050;11.036;2023-02-24T14:00:29;3.40;99.90
5059;DHT22;2548;52.050;11.036;2023-02-24T14:02:58;3.40;99.90
5059;DHT22;2548;52.050;11.036;2023-02-24T14:05:30;3.40;99.90
5059;DHT22;2548;52.050;11.036;2023-02-24T14:08:00;3.40;99.90
5059;DHT22;2548;52.050;11.036;2023-02-24T14:10:30;3.40;99.90
5059;DHT22;2548;52.050;11.036;2023-02-24T14:13:02;3.40;99.90
5059;DHT22;2548;52.050;11.036;2023-02-24T14:15:32;3.40;99.90
5059;DHT22;2548;52.050;11.036;2023-02-24T14:18:02;3.40;99.90
5059;DHT22;2548;52.050;11.036;2023-02-24T14:20:32;3.40;99.90
5059;DHT22;2548;52.050;11.036;2023-02-24T14:23:00;3.50;99.90
5059;DHT22;2548;52.050;11.036;2023-02-24T14:25:34;3.50;99.90
5059;DHT22;2548;52.050;11.036;2023-02-24T14:28:03;3.50;99.90
5059;DHT22;2548;52.050;11.036;2023-02-24T14:30:34;3.50;99.90
5059;DHT22;2548;52.050;11.036;2023-02-24T14:33:03;3.50;99.90
5059;DHT22;2548;52.050;11.036;2023-02-24T14:35:34;3.50;99.90
5059;DHT22;2548;52.050;11.036;2023-02-24T14:38:02;3.50;99.90
5059;DHT22;2548;52.050;11.036;2023-02-24T14:40:31;3.50;99.90
5059;DHT22;2548;52.050;11.036;2023-02-24T14:42:58;3.50;99.90
5059;DHT22;2548;52.050;11.036;2023-02-24T14:45:27;3.50;99.90
5059;DHT22;2548;52.050;11.036;2023-02-24T14:47:55;3.50;99.90
5059;DHT22;2548;52.050;11.036;2023-02-24T14:50:25;3.50;99.90
5059;DHT22;2548;52.050;11.036;2023-02-24T14:52:57;3.50;99.90
5059;DHT22;2548;52.050;11.036;2023-02-24T14:55:30;3.60;99.90
5059;DHT22;2548;52.050;11.036;2023-02-24T14:58:04;3.60;99.90
5059;DHT22;2548;52.050;11.036;2023-02-24T15:00:35;3.60;99.90
5059;DHT22;2548;52.050;11.036;2023-02-24T15:03:09;3.70;99.90
5059;DHT22;2548;52.050;11.036;2023-02-24T15:05:41;3.60;99.90
5059;DHT22;2548;52.050;11.036;2023-02-24T15:08:24;3.60;99.90
5059;DHT22;2548;52.050;11.036;2023-02-24T15:10:53;3.60;99.90
5059;DHT22;2548;52.050;11.036;2023-02-24T15:13:26;3.60;99.90
5059;DHT22;2548;52.050;11.036;2023-02-24T15:15:54;3.50;99.90
5059;DHT22;2548;52.050;11.036;2023-02-24T15:18:24;3.50;99.90
5059;DHT22;2548;52.050;11.036;2023-02-24T15:20:58;3.50;99.90
5059;DHT22;2548;52.050;11.036;2023-02-24T15:23:30;3.40;99.90
5059;DHT22;2548;52.050;11.036;2023-02-24T15:25:58;3.50;99.90
5059;DHT22;2548;52.050;11.036;2023-02-24T15:28:27;3.50;99.90
5059;DHT22;2548;52.050;11.036;2023-02-24T15:31:02;3.50;99.90
5059;DHT22;2548;52.050;11.036;2023-02-24T15:33:34;3.50;99.90
5059;DHT22;2548;52.050;11.036;2023-02-24T15:36:07;3.50;99.90
5059;DHT22;2548;52.050;11.036;2023-02-24T15:38:39;3.50;99.90
5059;DHT22;2548;52.050;11.036;2023-02-24T15:41:09;3.60;99.90
5059;DHT22;2548;52.050;11.036;2023-02-24T15:43:44;3.60;99.90
5059;DHT22;2548;52.050;11.036;2023-02-24T15:46:14;3.60;99.90
5059;DHT22;2548;52.050;11.036;2023-02-24T15:48:43;3.60;99.90
5059;DHT22;2548;52.050;11.036;2023-02-24T15:51:23;3.60;99.90
5059;DHT22;2548;52.050;11.036;2023-02-24T15:53:53;3.60;99.90
5059;DHT22;2548;52.050;11.036;2023-02-24T15:56:21;3.60;99.90
5059;DHT22;2548;52.050;11.036;2023-02-24T15:58:49;3.60;99.90
5059;DHT22;2548;52.050;11.036;2023-02-24T16:01:16;3.60;99.90
5059;DHT22;2548;52.050;11.036;2023-02-24T16:03:45;3.60;99.90
5059;DHT22;2548;52.050;11.036;2023-02-24T16:06:17;3.60;99.90
5059;DHT22;2548;52.050;11.036;2023-02-24T16:08:46;3.60;99.90
5059;DHT22;2548;52.050;11.036;2023-02-24T16:11:17;3.60;99.90
5059;DHT22;2548;52.050;11.036;2023-02-24T16:13:50;3.70;99.90
5059;DHT22;2548;52.050;11.036;2023-02-24T16:16:19;3.70;99.90
5059;DHT22;2548;52.050;11.036;2023-02-24T16:18:47;3.70;99.90
5059;DHT22;2548;52.050;11.036;2023-02-24T16:21:15;3.70;99.90
5059;DHT22;2548;52.050;11.036;2023-02-24T16:23:45;3.70;99.90
5059;DHT22;2548;52.050;11.036;2023-02-24T16:26:22;3.70;99.90
5059;DHT22;2548;52.050;11.036;2023-02-24T16:28:52;3.70;99.90
5059;DHT22;2548;52.050;11.036;2023-02-24T16:31:20;3.70;99.90
5059;DHT22;2548;52.050;11.036;2023-02-24T16:33:51;3.70;99.90
5059;DHT22;2548;52.050;11.036;2023-02-24T16:36:19;3.70;99.90
5059;DHT22;2548;52.050;11.036;2023-02-24T16:38:46;3.70;99.90
5059;DHT22;2548;52.050;11.036;2023-02-24T16:41:16;3.70;99.90
5059;DHT22;2548;52.050;11.036;2023-02-24T16:43:45;3.70;99.90